Details From GCGM - La Gomera
To TNCM - St Maarten - Princess Juliana Intl
Flight Number -
Tags Generated
Created
Modified
Stats Distance 2,591 nm / 4,799 km
Max Altitude 0 ft / 0 m
Waypoints 3
Social Downloads 0
Likes 0
Share VATSIM

Download

Looking for another format? Having issues loading an existing format? Contact us
Advertisement - Login to hide

Notes

Generated

Route

GCGM PJD TNCM

ID Type Via Altitude Latitude Longitude Leg Dist Tot Dist Heading (true) Name
O GCGM APT - 0 ft / 0 m 28.02859˚ -17.22214˚ - 0 nm - -
PJD NDB - 0 ft / 0 m 18.03833˚ -63.11833˚ 2591 nm 2591 nm 267° / 248° ST MAARTEN NDB
O TNCM APT - 0 ft / 0 m 18.03937˚ -63.11961˚ 0 nm 2591 nm 310° / 310° -

Altitude Profile

Advertisement - Login to hide

Weather


0- 5 10 15 20 25 30 35+ Temperature / ° C

Clouds and Precipitation
Forecast for 2017-12-15 00:00 UTC. Updated a minute ago

Ground ~20,000 ft ~40,000 ft Winds

GCGM

Details ICAO GCGM (GMZ)
Name La Gomera
Region Canary Islands
Timezone Atlantic/Canary (UTC+0.0)
Stats Elevation 715 ft / 218 m (AMSL)
Location 28.029627° -17.214603°
Runways 1
Magnetic Variation 5.359° W

METAR

GCGM 142300Z AUTO VRB09G20KT 9999 NCD 18/12 Q1026 RMK R09/35007KT 300V040 ARP/02007KT 320V070

Decode

TAF

TAF GCGM 142000Z 1421/1521 35009KT 9999 FEW025 TX22/1514Z TN15/1506Z

Decode

Departure Runways

ID Width Length Bearing (true) Bearing (mag) Surface Threshold Offset Overrun Length
09 98 ft / 30 m 4,914 ft / 1,498 m 81.17° 86.53° Asphalt 0 ft / 0 m 0 ft / 0 m
27 98 ft / 30 m 4,914 ft / 1,498 m 261.18° 266.54° Asphalt 0 ft / 0 m 0 ft / 0 m

TNCM

Details ICAO TNCM (SXM)
Name St Maarten - Princess Juliana Intl
Region Caribbean Netherlands, Aruba, Curaçao, Sint Maarten
Timezone Unknown (UTC+0.0)
Stats Elevation 12 ft / 4 m (AMSL)
Location 18.040889° -63.108974°
Runways 1
Magnetic Variation 14.325° W

METAR

TNCM 142300Z 07008KT 9999 FEW020 27/21 Q1017 A3004 NOSIG

Decode

TAF

TAF TNCM 141738Z 1418/1518 11008KT P6SM SCT022 FM142200 08012KT P6SM FEW022 FM151200 06017KT P6SM VCSH FEW020 SCT040

Decode

Destination Runways

ID Width Length Bearing (true) Bearing (mag) Surface Threshold Offset Overrun Length
10 148 ft / 45 m 7,464 ft / 2,275 m 81.43° 95.76° Asphalt 0 ft / 0 m 151 ft / 46 m
28 148 ft / 45 m 7,464 ft / 2,275 m 261.44° 275.77° Asphalt 397 ft / 121 m 0 ft / 0 m